createdAt,value
2022-09-07T00:00:40.000Z,3.1
2022-09-07T00:04:12.000Z,3.1
2022-09-07T00:07:45.000Z,3
2022-09-07T00:10:36.000Z,3.4
2022-09-07T00:14:09.000Z,3
2022-09-07T00:17:41.000Z,3.2
2022-09-07T00:21:14.000Z,3.5
2022-09-07T00:24:47.000Z,3.1
2022-09-07T00:28:19.000Z,3.3
2022-09-07T00:31:52.000Z,3.3
2022-09-07T00:35:24.000Z,3
2022-09-07T00:38:57.000Z,3.2
2022-09-07T00:42:30.000Z,3.1
2022-09-07T00:46:03.000Z,3
2022-09-07T00:48:54.000Z,3.4
2022-09-07T00:52:26.000Z,3.3
2022-09-07T00:55:59.000Z,3.5
2022-09-07T00:59:32.000Z,3.2
2022-09-07T01:03:04.000Z,3.1
2022-09-07T01:06:37.000Z,3.1
2022-09-07T01:10:09.000Z,3
2022-09-07T01:13:42.000Z,3.4
2022-09-07T01:17:15.000Z,3.3
2022-09-07T01:20:47.000Z,3
2022-09-07T01:24:20.000Z,3.2
2022-09-07T01:27:11.000Z,3.5
2022-09-07T01:30:43.000Z,3.3
2022-09-07T01:34:16.000Z,3.1
2022-09-07T01:37:49.000Z,3.3
2022-09-07T01:41:22.000Z,3.2
2022-09-07T01:44:55.000Z,3.3
2022-09-07T01:48:27.000Z,3.3
2022-09-07T01:52:00.000Z,3.2
2022-09-07T01:55:33.000Z,3.2
2022-09-07T01:59:05.000Z,3.1
2022-09-07T02:02:38.000Z,3.2
2022-09-07T02:05:29.000Z,3.5
2022-09-07T02:09:02.000Z,3.3
2022-09-07T02:12:35.000Z,3.5
2022-09-07T02:16:07.000Z,3.3
2022-09-07T02:19:40.000Z,3.3
2022-09-07T02:23:13.000Z,3.4
2022-09-07T02:26:45.000Z,3.3
2022-09-07T02:30:18.000Z,3.2
2022-09-07T02:33:51.000Z,3.7
2022-09-07T02:37:23.000Z,3.8
2022-09-07T02:40:56.000Z,3.3
2022-09-07T02:43:47.000Z,3.1
2022-09-07T02:47:20.000Z,3.3
2022-09-07T02:50:52.000Z,3
2022-09-07T02:54:25.000Z,3.5
2022-09-07T02:57:57.000Z,3.7
2022-09-07T03:01:30.000Z,2.6
2022-09-07T03:05:03.000Z,2.3
2022-09-07T03:08:35.000Z,2
2022-09-07T03:12:08.000Z,2.5
2022-09-07T03:15:41.000Z,2.4
2022-09-07T03:19:20.000Z,2.1
2022-09-07T03:22:11.000Z,2.5
2022-09-07T03:25:49.000Z,2.3
2022-09-07T03:29:22.000Z,2.2
2022-09-07T03:32:55.000Z,2.1
2022-09-07T03:36:27.000Z,2.2
2022-09-07T03:40:00.000Z,2.4
2022-09-07T03:43:33.000Z,2
2022-09-07T03:47:05.000Z,2.3
2022-09-07T03:50:38.000Z,2.3
2022-09-07T03:54:11.000Z,2.4
2022-09-07T03:57:43.000Z,2
2022-09-07T04:00:34.000Z,2.5
2022-09-07T04:04:07.000Z,2.4
2022-09-07T04:07:39.000Z,2.4
2022-09-07T04:11:12.000Z,2.4
2022-09-07T04:14:45.000Z,2.4
2022-09-07T04:18:17.000Z,2.2
2022-09-07T04:21:50.000Z,2.5
2022-09-07T04:25:23.000Z,2.6
2022-09-07T04:28:55.000Z,2.5
2022-09-07T04:32:28.000Z,2.4
2022-09-07T04:36:01.000Z,2.3
2022-09-07T04:38:51.000Z,2.2
2022-09-07T04:42:24.000Z,2
2022-09-07T04:45:57.000Z,2.4
2022-09-07T04:49:30.000Z,2.1
2022-09-07T04:53:04.000Z,2.6
2022-09-07T04:56:37.000Z,2.5
2022-09-07T05:00:09.000Z,2
2022-09-07T05:03:42.000Z,2.6
2022-09-07T05:07:15.000Z,2.4
2022-09-07T05:10:47.000Z,2.5
2022-09-07T05:14:20.000Z,2.5
2022-09-07T05:17:11.000Z,1.9
2022-09-07T05:20:44.000Z,2.6
2022-09-07T05:24:16.000Z,3.2
2022-09-07T05:27:49.000Z,3.7
2022-09-07T05:31:52.000Z,3.7
2022-09-07T05:36:25.000Z,2.4
2022-09-07T05:39:57.000Z,4
2022-09-07T05:48:05.000Z,3.8
2022-09-07T05:51:38.000Z,3.5
2022-09-07T05:55:11.000Z,3.4
2022-09-07T05:58:13.000Z,3.4
2022-09-07T06:01:46.000Z,3
2022-09-07T06:05:20.000Z,3.5
2022-09-07T06:09:03.000Z,3.4
2022-09-07T06:14:50.000Z,2.7
2022-09-07T06:18:23.000Z,2.7
2022-09-07T06:21:55.000Z,2.5
2022-09-07T06:25:28.000Z,3
2022-09-07T06:29:01.000Z,3.1
2022-09-07T06:36:07.000Z,2.9
2022-09-07T06:38:52.000Z,3.1
2022-09-07T06:42:25.000Z,2.8
2022-09-07T06:50:00.000Z,3
2022-09-07T06:53:33.000Z,3.7
2022-09-07T06:57:10.000Z,3.2
2022-09-07T07:00:42.000Z,3.6
2022-09-07T07:04:15.000Z,3.3
2022-09-07T07:07:48.000Z,3.4
2022-09-07T07:11:20.000Z,3
2022-09-07T07:14:53.000Z,3.4
2022-09-07T07:17:44.000Z,2.9
2022-09-07T07:21:25.000Z,3.1
2022-09-07T07:25:32.000Z,2.9
2022-09-07T07:29:05.000Z,3.3
2022-09-07T07:32:43.000Z,3
2022-09-07T07:36:16.000Z,2.8
2022-09-07T07:39:49.000Z,2.8
2022-09-07T07:43:51.000Z,2.9
2022-09-07T07:47:53.000Z,2.8
2022-09-07T07:51:26.000Z,3.1
2022-09-07T07:56:15.000Z,3.2
2022-09-07T07:59:06.000Z,3.4
2022-09-07T08:02:52.000Z,3
2022-09-07T08:06:25.000Z,3
2022-09-07T08:09:57.000Z,2.8
2022-09-07T08:13:30.000Z,2.6
2022-09-07T08:17:03.000Z,2.6
2022-09-07T08:20:35.000Z,2.3
2022-09-07T08:24:08.000Z,2.6
2022-09-07T08:27:41.000Z,2.4
2022-09-07T08:31:13.000Z,2.5
2022-09-07T08:34:46.000Z,2.3
2022-09-07T08:37:38.000Z,2.3
2022-09-07T08:41:10.000Z,2.8
2022-09-07T08:44:43.000Z,2.7
2022-09-07T08:48:16.000Z,2.4
2022-09-07T08:51:48.000Z,2.4
2022-09-07T08:55:21.000Z,2.6
2022-09-07T08:59:20.000Z,2.4
2022-09-07T09:03:29.000Z,2.4
2022-09-07T09:07:41.000Z,2.7
2022-09-07T09:11:14.000Z,2.7
2022-09-07T09:14:47.000Z,2.5
2022-09-07T09:17:38.000Z,2.2
2022-09-07T09:21:11.000Z,2.4
2022-09-07T09:24:43.000Z,2.3
2022-09-07T09:28:16.000Z,2.3
2022-09-07T09:31:52.000Z,2.6
2022-09-07T09:35:25.000Z,2.5
2022-09-07T09:38:58.000Z,2.8
2022-09-07T09:42:31.000Z,2
2022-09-07T09:46:03.000Z,2.1
2022-09-07T09:49:38.000Z,2.4
2022-09-07T09:53:40.000Z,2.2
2022-09-07T09:56:32.000Z,2.3
2022-09-07T10:00:34.000Z,2.3
2022-09-07T10:05:16.000Z,2.4
2022-09-07T10:08:49.000Z,2.1
2022-09-07T10:12:22.000Z,2.1
2022-09-07T10:15:54.000Z,2.1
2022-09-07T10:19:27.000Z,2.1
2022-09-07T10:23:00.000Z,1.9
2022-09-07T10:26:32.000Z,1.7
2022-09-07T10:30:05.000Z,2
2022-09-07T10:33:38.000Z,1.9
2022-09-07T10:37:09.000Z,2
2022-09-07T10:40:42.000Z,2.2
2022-09-07T10:44:15.000Z,1.8
2022-09-07T10:47:47.000Z,1.7
2022-09-07T10:51:20.000Z,2.1
2022-09-07T10:54:53.000Z,1.9
2022-09-07T10:58:25.000Z,1.8
2022-09-07T11:02:28.000Z,1.7
2022-09-07T11:06:01.000Z,1.6
2022-09-07T11:09:33.000Z,1.6
2022-09-07T11:13:06.000Z,1.6
2022-09-07T11:15:57.000Z,1.7
2022-09-07T11:19:30.000Z,1.8
2022-09-07T11:23:03.000Z,1.6
2022-09-07T11:26:36.000Z,1.7
2022-09-07T11:30:09.000Z,1.6
2022-09-07T11:37:44.000Z,1.7
2022-09-07T11:41:17.000Z,2
2022-09-07T11:44:50.000Z,2.2
2022-09-07T11:48:22.000Z,1.9
2022-09-07T11:51:58.000Z,2.3
2022-09-07T11:54:49.000Z,1.8
2022-09-07T11:58:22.000Z,2.1
2022-09-07T12:01:54.000Z,2.1
2022-09-07T12:05:27.000Z,1.9
2022-09-07T12:09:00.000Z,2.1
2022-09-07T12:12:33.000Z,2.1
2022-09-07T12:16:05.000Z,2.1
2022-09-07T12:19:38.000Z,2.4
2022-09-07T12:23:11.000Z,2.1
2022-09-07T12:26:43.000Z,2.1
2022-09-07T12:30:20.000Z,2.1
2022-09-07T12:33:12.000Z,2.2
2022-09-07T12:36:44.000Z,2.3
2022-09-07T12:40:17.000Z,2.2
2022-09-07T12:44:30.000Z,2.4
2022-09-07T12:48:03.000Z,2.1
2022-09-07T12:51:36.000Z,2.1
2022-09-07T12:59:36.000Z,2.1
2022-09-07T13:07:14.000Z,2.2
2022-09-07T13:10:46.000Z,2
2022-09-07T13:13:37.000Z,1.9
2022-09-07T13:17:33.000Z,2.3
2022-09-07T13:21:06.000Z,1.9
2022-09-07T13:24:39.000Z,2
2022-09-07T13:28:13.000Z,2.4
2022-09-07T13:31:45.000Z,1.7
2022-09-07T13:35:18.000Z,2.1
2022-09-07T13:38:51.000Z,2
2022-09-07T13:42:23.000Z,1.9
2022-09-07T13:45:56.000Z,2.1
2022-09-07T13:49:29.000Z,2.3
2022-09-07T13:52:20.000Z,1.9
2022-09-07T13:55:53.000Z,2
2022-09-07T13:59:26.000Z,2.3
2022-09-07T14:02:58.000Z,2.3
2022-09-07T14:06:31.000Z,2.1
2022-09-07T14:10:04.000Z,2.2
2022-09-07T14:13:36.000Z,2.5
2022-09-07T14:17:09.000Z,2.3
2022-09-07T14:20:42.000Z,2.3
2022-09-07T14:24:15.000Z,2
2022-09-07T14:28:16.000Z,1.8
2022-09-07T14:31:07.000Z,1.7
2022-09-07T14:34:40.000Z,1.7
2022-09-07T14:42:07.000Z,1.6
2022-09-07T14:45:40.000Z,1.6
2022-09-07T14:49:14.000Z,1.8
2022-09-07T14:53:09.000Z,2
2022-09-07T14:57:01.000Z,1.9
2022-09-07T15:00:33.000Z,2
2022-09-07T15:04:07.000Z,1.6
2022-09-07T15:07:39.000Z,1.7
2022-09-07T15:11:12.000Z,1.6
2022-09-07T15:15:00.000Z,1.7
2022-09-07T15:18:33.000Z,1.6
2022-09-07T15:21:24.000Z,1.7
2022-09-07T15:24:57.000Z,2.1
2022-09-07T15:29:01.000Z,1.8
2022-09-07T15:32:35.000Z,1.6
2022-09-07T15:36:08.000Z,1.7
2022-09-07T15:40:03.000Z,1.5
2022-09-07T15:43:36.000Z,1.8
2022-09-07T15:47:10.000Z,1.6
2022-09-07T15:55:48.000Z,1.8
2022-09-07T15:59:55.000Z,1.9
2022-09-07T16:02:46.000Z,1.7
2022-09-07T16:06:33.000Z,1.8
2022-09-07T16:10:25.000Z,1.5
2022-09-07T16:15:00.000Z,1.4
2022-09-07T16:19:02.000Z,1.5
2022-09-07T16:22:35.000Z,1.6
2022-09-07T16:26:38.000Z,1.4
2022-09-07T16:30:11.000Z,1.5
2022-09-07T16:34:14.000Z,1.5
2022-09-07T16:41:49.000Z,1.3
2022-09-07T16:44:41.000Z,1.3
2022-09-07T16:48:14.000Z,1.4
2022-09-07T16:51:46.000Z,1.4
2022-09-07T16:55:19.000Z,1.5
2022-09-07T16:58:51.000Z,1.6
2022-09-07T17:02:24.000Z,1.7
2022-09-07T17:05:57.000Z,1.4
2022-09-07T17:09:30.000Z,1.4
2022-09-07T17:13:03.000Z,1.5
2022-09-07T17:16:35.000Z,1.4
2022-09-07T17:20:08.000Z,2.5
2022-09-07T17:22:59.000Z,2.5
2022-09-07T17:26:32.000Z,2.1
2022-09-07T17:30:07.000Z,1.6
2022-09-07T17:34:10.000Z,2
2022-09-07T17:37:42.000Z,1.8
2022-09-07T17:41:17.000Z,1.5
2022-09-07T17:45:20.000Z,2.1
2022-09-07T17:48:53.000Z,1.8
2022-09-07T17:52:26.000Z,1.9
2022-09-07T17:56:09.000Z,1.6
2022-09-07T17:59:42.000Z,1.7
2022-09-07T18:02:56.000Z,1.6
2022-09-07T18:06:29.000Z,1.6
2022-09-07T18:10:01.000Z,1.9
2022-09-07T18:13:47.000Z,1.8
2022-09-07T18:17:20.000Z,1.9
2022-09-07T18:20:53.000Z,1.7
2022-09-07T18:24:26.000Z,1.9
2022-09-07T18:32:05.000Z,1.9
2022-09-07T18:35:38.000Z,1.8
2022-09-07T18:39:11.000Z,1.8
2022-09-07T18:42:02.000Z,1.7
2022-09-07T18:45:36.000Z,1.6
2022-09-07T18:49:19.000Z,2
2022-09-07T18:52:52.000Z,1.9
2022-09-07T18:56:40.000Z,1.6
2022-09-07T19:00:14.000Z,1.8
2022-09-07T19:03:46.000Z,1.8
2022-09-07T19:07:49.000Z,2
2022-09-07T19:11:21.000Z,1.9
2022-09-07T19:14:54.000Z,1.9
2022-09-07T19:18:27.000Z,2
2022-09-07T19:21:18.000Z,1.9
2022-09-07T19:24:51.000Z,2.1
2022-09-07T19:28:23.000Z,2
2022-09-07T19:31:56.000Z,1.9
2022-09-07T19:35:29.000Z,1.8
2022-09-07T19:39:01.000Z,2.2
2022-09-07T19:42:34.000Z,1.9
2022-09-07T19:46:07.000Z,2.1
2022-09-07T19:49:39.000Z,2
2022-09-07T19:53:12.000Z,1.8
2022-09-07T19:56:45.000Z,2.6
2022-09-07T19:59:36.000Z,2.5
2022-09-07T20:03:09.000Z,2.2
2022-09-07T20:06:42.000Z,2.2
2022-09-07T20:10:15.000Z,2.3
2022-09-07T20:13:48.000Z,2.3
2022-09-07T20:17:20.000Z,2.1
2022-09-07T20:21:00.000Z,2.4
2022-09-07T20:24:32.000Z,2.2
2022-09-07T20:28:05.000Z,2.1
2022-09-07T20:31:37.000Z,2.3
2022-09-07T20:35:10.000Z,2.1
2022-09-07T20:38:01.000Z,2.1
2022-09-07T20:41:38.000Z,2.2
2022-09-07T20:45:11.000Z,2.4
2022-09-07T20:48:43.000Z,2.5
2022-09-07T20:52:16.000Z,2.3
2022-09-07T20:55:49.000Z,2.1
2022-09-07T20:59:21.000Z,2.4
2022-09-07T21:02:54.000Z,2.2
2022-09-07T21:06:27.000Z,2.5
2022-09-07T21:09:59.000Z,2.4
2022-09-07T21:13:32.000Z,2.6
2022-09-07T21:16:23.000Z,2.7
2022-09-07T21:19:56.000Z,2.5
2022-09-07T21:23:29.000Z,2.3
2022-09-07T21:27:01.000Z,2.8
2022-09-07T21:30:34.000Z,2.6
2022-09-07T21:34:06.000Z,2.7
2022-09-07T21:37:39.000Z,2.4
2022-09-07T21:41:13.000Z,2.8
2022-09-07T21:44:46.000Z,2.4
2022-09-07T21:48:18.000Z,2.8
2022-09-07T21:51:51.000Z,2.9
2022-09-07T21:54:43.000Z,2.9
2022-09-07T21:58:16.000Z,2.9
2022-09-07T22:01:48.000Z,2.9
2022-09-07T22:05:21.000Z,2.8
2022-09-07T22:08:53.000Z,2.8
2022-09-07T22:12:26.000Z,3.2
2022-09-07T22:15:59.000Z,3.2
2022-09-07T22:19:31.000Z,3.1
2022-09-07T22:23:04.000Z,2.7
2022-09-07T22:26:37.000Z,3.1
2022-09-07T22:30:09.000Z,3.4
2022-09-07T22:33:01.000Z,3.2
2022-09-07T22:36:33.000Z,3.4
2022-09-07T22:40:06.000Z,3.2
2022-09-07T22:43:39.000Z,3.2
2022-09-07T22:47:11.000Z,3.2
2022-09-07T22:50:44.000Z,2.9
2022-09-07T22:54:17.000Z,3.1
2022-09-07T22:57:49.000Z,3.5
2022-09-07T23:01:22.000Z,3.5
2022-09-07T23:04:55.000Z,3.6
2022-09-07T23:08:27.000Z,3.2
2022-09-07T23:11:18.000Z,3.4
2022-09-07T23:14:51.000Z,3.7
2022-09-07T23:18:24.000Z,3.4
2022-09-07T23:21:56.000Z,3.5
2022-09-07T23:25:29.000Z,3.5
2022-09-07T23:29:02.000Z,3.9
2022-09-07T23:32:34.000Z,3.8
2022-09-07T23:36:07.000Z,3.8
2022-09-07T23:39:40.000Z,3.6
2022-09-07T23:43:12.000Z,4
2022-09-07T23:46:45.000Z,3.6
2022-09-07T23:49:36.000Z,3.4
2022-09-07T23:53:09.000Z,4.1
2022-09-07T23:56:41.000Z,3.6
